KORL/ORL METAR and TAF weather

Enter ICAO airport designator
Station Type Date Time Source
KORL METAR 2021/03/08 12:53 UTC NOAA

KORL 081253Z 36007KT 10SM CLR 12/03 A3041 RMK AO2 SLP304 T01220033


Station Type Date Time Source
KORL Decoded METAR 2021/03/08 12:53 UTC NOAA

ORLANDO EXECUTIVE AIRPORT, FL, United States (KORL) 28-33N 081-20W 37M
Mar 08, 2021 - 07:53 AM EST / 2021.03.08 1253 UTC
Wind: from the N (360 degrees) at 8 MPH (7 KT):0
Visibility: 10 mile(s):0
Sky conditions: clear
Temperature: 54.0 F (12.2 C)
Dew Point: 37.9 F (3.3 C)
Relative Humidity: 54%
Pressure (altimeter): 30.41 in. Hg (1029 hPa)
ob: KORL 081253Z 36007KT 10SM CLR 12/03 A3041 RMK AO2 SLP304 T01220033
cycle: 13

Station Type Date Time Source
KORL TAF UTC NOAA

Error!

Example: see airport list